Time;durP1;ratioP1;P1;durP2;ratioP2;P2;SDS_P1;SDS_P2;PMS_P1;PMS_P2;Temp;Humidity;BMP_temperature;BMP_pressure;BME280_temperature;BME280_humidity;BME280_pressure;Samples;Min_cycle;Max_cycle;Signal;HPM_P1;HPM_P2
2023/07/01 00:02:14;;;;;;;5.40;2.45;;;17.50;99.90;;;;;;5064797;28;20036;-82
2023/07/01 00:04:40;;;;;;;6.53;2.20;;;17.40;99.90;;;;;;5067032;28;20040;-83
2023/07/01 00:07:06;;;;;;;4.05;2.05;;;17.40;99.90;;;;;;5066148;28;20063;-82
2023/07/01 00:09:32;;;;;;;5.15;2.53;;;17.30;99.90;;;;;;5065130;28;20044;-83
2023/07/01 00:11:58;;;;;;;10.90;2.65;;;17.30;99.90;;;;;;5066440;28;20028;-82
2023/07/01 00:14:23;;;;;;;4.18;1.90;;;17.30;99.90;;;;;;5065340;28;20110;-82
2023/07/01 00:16:49;;;;;;;4.75;2.10;;;17.40;99.90;;;;;;5049923;28;20054;-82
2023/07/01 00:19:15;;;;;;;4.70;2.38;;;17.40;99.90;;;;;;5066498;28;20049;-82
2023/07/01 00:21:40;;;;;;;12.55;2.20;;;17.30;99.90;;;;;;5065386;28;20040;-82
2023/07/01 00:24:06;;;;;;;6.40;2.17;;;17.40;99.90;;;;;;5066381;28;20444;-82
2023/07/01 00:26:32;;;;;;;7.72;2.50;;;17.40;99.90;;;;;;5066824;28;20044;-83
2023/07/01 00:28:57;;;;;;;4.50;2.00;;;17.40;99.90;;;;;;5065658;28;20519;-82
2023/07/01 00:31:23;;;;;;;5.28;2.00;;;17.40;99.90;;;;;;5066386;28;20048;-83
2023/07/01 00:33:48;;;;;;;5.85;2.17;;;17.40;99.90;;;;;;5065289;28;20464;-83
2023/07/01 00:36:14;;;;;;;4.55;2.40;;;17.40;99.90;;;;;;5047676;28;20052;-81
2023/07/01 00:38:40;;;;;;;4.03;2.35;;;17.40;99.90;;;;;;5066034;28;20041;-82
2023/07/01 00:41:05;;;;;;;8.20;2.40;;;17.60;99.90;;;;;;5066568;28;20500;-83
2023/07/01 00:43:31;;;;;;;4.50;2.42;;;17.40;99.90;;;;;;5066202;28;20060;-82
2023/07/01 00:45:56;;;;;;;4.75;2.15;;;17.50;99.90;;;;;;5064888;28;20055;-82
2023/07/01 00:48:27;;;;;;;4.22;2.13;;;17.60;99.90;;;;;;5066487;28;20033;-82
2023/07/01 00:50:53;;;;;;;5.10;1.92;;;17.50;99.90;;;;;;5066414;28;20415;-84
2023/07/01 00:53:19;;;;;;;4.25;2.15;;;17.60;99.90;;;;;;5058769;28;20142;-84
2023/07/01 00:55:45;;;;;;;4.78;2.83;;;17.50;99.90;;;;;;5056377;28;20048;-83
2023/07/01 00:58:11;;;;;;;3.75;2.35;;;17.50;99.90;;;;;;5066220;28;20040;-83
2023/07/01 01:00:37;;;;;;;6.32;2.33;;;17.50;99.90;;;;;;5047997;28;20052;-84
2023/07/01 01:03:14;;;;;;;6.70;2.40;;;17.50;99.90;;;;;;5047854;28;20060;-83
2023/07/01 01:05:52;;;;;;;5.60;2.20;;;17.50;99.90;;;;;;5066469;28;20049;-82
2023/07/01 01:08:45;;;;;;;6.00;2.17;;;17.50;99.90;;;;;;5048372;28;20041;-82
2023/07/01 01:11:13;;;;;;;11.00;2.47;;;17.50;99.90;;;;;;5033849;28;20036;-82
2023/07/01 01:13:41;;;;;;;3.90;2.03;;;17.50;99.90;;;;;;5066729;28;20143;-83
2023/07/01 01:16:07;;;;;;;5.63;2.60;;;17.90;99.90;;;;;;5063453;28;20151;-81
2023/07/01 01:18:34;;;;;;;7.30;2.75;;;17.50;99.90;;;;;;5065590;28;20048;-82
2023/07/01 01:21:01;;;;;;;6.63;2.92;;;17.40;99.90;;;;;;5064881;28;20053;-84
2023/07/01 01:23:29;;;;;;;4.75;2.42;;;17.50;99.90;;;;;;5064981;28;20117;-82
2023/07/01 01:26:05;;;;;;;5.82;2.78;;;17.50;99.90;;;;;;5065586;28;20400;-83
2023/07/01 01:28:32;;;;;;;4.30;2.40;;;17.50;99.90;;;;;;5068435;28;20047;-82
2023/07/01 01:30:58;;;;;;;7.78;2.70;;;17.70;99.90;;;;;;5069225;28;20055;-83
2023/07/01 01:33:24;;;;;;;3.78;2.22;;;17.50;99.90;;;;;;5065195;28;20127;-83
2023/07/01 01:35:50;;;;;;;6.53;2.40;;;17.50;99.90;;;;;;5050798;28;20052;-83
2023/07/01 01:38:23;;;;;;;6.60;2.40;;;17.50;99.90;;;;;;5069660;28;20041;-82
2023/07/01 01:41:00;;;;;;;6.85;2.88;;;17.70;99.90;;;;;;5070229;28;20050;-83
2023/07/01 01:43:49;;;;;;;9.43;2.88;;;17.50;99.90;;;;;;5068223;28;20059;-83
2023/07/01 01:46:17;;;;;;;7.07;2.72;;;17.50;99.90;;;;;;5048946;28;20041;-83
2023/07/01 01:48:43;;;;;;;3.72;2.38;;;17.50;99.90;;;;;;5075243;28;21015;-82
2023/07/01 01:51:09;;;;;;;5.68;2.40;;;17.50;99.90;;;;;;5067426;28;20059;-83
2023/07/01 01:53:38;;;;;;;5.10;3.03;;;17.50;99.90;;;;;;5067792;28;20408;-83
2023/07/01 01:56:05;;;;;;;5.80;3.17;;;17.50;99.90;;;;;;5051518;28;20057;-83
2023/07/01 01:58:30;;;;;;;6.18;3.45;;;17.50;99.90;;;;;;5068729;28;20044;-81
2023/07/01 02:00:56;;;;;;;5.72;3.08;;;17.50;99.90;;;;;;5067748;28;20045;-84
2023/07/01 02:03:22;;;;;;;6.10;3.15;;;17.50;99.90;;;;;;5050931;28;20399;-82
2023/07/01 02:05:47;;;;;;;6.00;3.20;;;17.30;99.90;;;;;;5051504;28;21076;-82
2023/07/01 02:08:13;;;;;;;5.53;3.00;;;17.40;99.90;;;;;;5052629;28;20048;-83
2023/07/01 02:10:38;;;;;;;4.30;3.10;;;17.70;99.90;;;;;;5051988;28;20123;-82
2023/07/01 02:13:05;;;;;;;8.15;3.80;;;17.60;99.90;;;;;;5069973;28;20571;-82
2023/07/01 02:15:31;;;;;;;5.38;3.25;;;17.20;99.90;;;;;;5069397;28;20048;-83
2023/07/01 02:17:56;;;;;;;5.35;3.40;;;17.20;99.90;;;;;;5068396;28;20037;-82
2023/07/01 02:20:22;;;;;;;6.53;3.22;;;17.20;99.90;;;;;;5067557;28;20424;-82
2023/07/01 02:22:48;;;;;;;7.18;3.65;;;17.20;99.90;;;;;;5070512;28;20493;-84
2023/07/01 02:25:14;;;;;;;5.40;3.45;;;17.10;99.90;;;;;;5069432;28;20040;-83
2023/07/01 02:27:40;;;;;;;6.25;3.17;;;17.10;99.90;;;;;;5067923;28;20139;-84
2023/07/01 02:30:07;;;;;;;6.20;3.13;;;17.10;99.90;;;;;;5050705;28;21998;-84
2023/07/01 02:32:33;;;;;;;6.20;3.67;;;17.10;99.90;;;;;;5071271;28;20076;-83
2023/07/01 02:34:58;;;;;;;6.15;3.35;;;17.10;99.90;;;;;;5067606;28;20068;-83
2023/07/01 02:37:24;;;;;;;8.07;3.65;;;17.20;99.90;;;;;;5068177;28;20047;-81
2023/07/01 02:39:49;;;;;;;7.18;3.15;;;17.20;99.90;;;;;;5070074;28;20068;-83
2023/07/01 02:42:19;;;;;;;4.75;3.22;;;17.20;99.90;;;;;;5052044;28;20127;-82
2023/07/01 02:44:46;;;;;;;5.15;2.78;;;17.30;99.90;;;;;;5070750;28;20048;-83
2023/07/01 02:47:12;;;;;;;4.70;3.50;;;17.30;99.90;;;;;;5048071;28;20048;-83
2023/07/01 02:49:40;;;;;;;5.70;3.20;;;17.30;99.90;;;;;;5066261;28;20053;-82
2023/07/01 02:52:10;;;;;;;7.00;3.08;;;17.20;99.90;;;;;;5049478;28;20549;-82
2023/07/01 02:54:39;;;;;;;6.30;2.67;;;17.30;99.90;;;;;;5069405;28;20045;-83
2023/07/01 02:57:06;;;;;;;7.15;3.13;;;17.30;99.90;;;;;;5066967;28;20121;-83
2023/07/01 02:59:32;;;;;;;5.82;3.08;;;17.30;99.90;;;;;;5068574;28;20052;-81
2023/07/01 03:01:57;;;;;;;6.32;3.25;;;17.30;99.90;;;;;;5051193;28;20048;-81
2023/07/01 03:04:23;;;;;;;7.18;3.40;;;17.20;99.90;;;;;;5066675;28;20044;-81
2023/07/01 03:06:48;;;;;;;3.78;3.10;;;17.20;99.90;;;;;;5066084;28;20044;-83
2023/07/01 03:09:14;;;;;;;6.38;3.30;;;17.20;99.90;;;;;;5068058;28;20123;-82
2023/07/01 03:11:40;;;;;;;7.53;3.20;;;17.10;99.90;;;;;;5050561;28;20136;-83
2023/07/01 03:14:06;;;;;;;5.30;3.25;;;17.10;99.90;;;;;;5048344;28;20043;-83
2023/07/01 03:16:31;;;;;;;10.05;3.28;;;17.10;99.90;;;;;;5050515;28;20048;-82
2023/07/01 03:18:58;;;;;;;5.43;3.15;;;17.30;99.90;;;;;;5067311;28;20072;-82
2023/07/01 03:21:25;;;;;;;5.53;3.28;;;17.10;99.90;;;;;;5049259;28;20032;-83
2023/07/01 03:23:50;;;;;;;6.07;3.30;;;17.00;99.90;;;;;;5067362;28;20052;-82
2023/07/01 03:26:16;;;;;;;6.00;2.97;;;16.80;99.90;;;;;;5065296;28;20408;-82
2023/07/01 03:28:42;;;;;;;5.75;2.88;;;16.80;99.90;;;;;;5064202;28;20690;-82
2023/07/01 03:31:08;;;;;;;5.10;3.10;;;16.60;99.90;;;;;;5067865;28;20086;-83
2023/07/01 03:33:34;;;;;;;5.20;3.25;;;16.60;99.90;;;;;;5041631;28;20443;-82
2023/07/01 03:36:00;;;;;;;4.00;3.08;;;16.40;99.90;;;;;;5050086;28;20131;-84
2023/07/01 03:38:25;;;;;;;6.95;3.45;;;16.30;99.90;;;;;;5047831;28;20461;-83
2023/07/01 03:40:51;;;;;;;5.05;3.70;;;16.20;99.90;;;;;;5039355;28;20144;-83
2023/07/01 03:43:17;;;;;;;5.95;3.53;;;16.20;99.90;;;;;;5064609;28;20094;-83
2023/07/01 03:45:42;;;;;;;5.55;3.30;;;16.20;99.90;;;;;;5064016;28;20412;-83
2023/07/01 03:48:08;;;;;;;6.10;3.55;;;16.10;99.90;;;;;;5051044;28;20380;-82
2023/07/01 03:50:34;;;;;;;6.47;3.47;;;16.10;99.90;;;;;;5065983;28;20396;-82
2023/07/01 03:52:59;;;;;;;4.47;3.20;;;16.00;99.90;;;;;;5067420;28;20060;-83
2023/07/01 03:55:25;;;;;;;5.03;3.05;;;16.00;99.90;;;;;;5066659;28;20044;-85
2023/07/01 03:57:51;;;;;;;5.85;3.40;;;15.90;99.90;;;;;;5065744;28;20701;-83
2023/07/01 04:00:17;;;;;;;3.50;3.20;;;15.90;99.90;;;;;;5049004;28;20412;-82
2023/07/01 04:02:47;;;;;;;3.90;3.20;;;15.90;99.90;;;;;;5068646;28;20107;-83
2023/07/01 04:05:13;;;;;;;3.55;3.08;;;15.90;99.90;;;;;;5063964;28;20123;-84
2023/07/01 04:07:43;;;;;;;4.75;3.20;;;15.90;99.90;;;;;;5066482;28;20445;-84
2023/07/01 04:10:10;;;;;;;6.82;3.00;;;15.90;99.90;;;;;;5066252;28;20051;-84
2023/07/01 04:12:37;;;;;;;8.88;4.03;;;15.90;99.90;;;;;;5066259;28;20454;-82
2023/07/01 04:15:09;;;;;;;5.40;3.65;;;16.30;99.90;;;;;;5064834;28;20091;-82
2023/07/01 04:17:36;;;;;;;6.03;3.90;;;15.90;99.90;;;;;;5050337;28;20127;-83
2023/07/01 04:20:03;;;;;;;4.63;3.38;;;15.90;99.90;;;;;;5065677;28;20076;-83
2023/07/01 04:22:28;;;;;;;7.35;3.45;;;15.90;99.90;;;;;;5049179;28;20040;-84
2023/07/01 04:24:54;;;;;;;4.25;3.13;;;15.70;99.90;;;;;;5049503;28;20048;-85
2023/07/01 04:27:20;;;;;;;4.85;3.38;;;15.90;99.90;;;;;;5064389;28;20068;-85
2023/07/01 04:29:45;;;;;;;5.43;3.58;;;15.90;99.90;;;;;;5049129;28;20719;-84
2023/07/01 04:32:11;;;;;;;4.75;3.40;;;16.10;99.90;;;;;;5065898;28;20055;-84
2023/07/01 04:34:36;;;;;;;5.90;3.55;;;15.90;99.90;;;;;;5066124;28;20052;-85
2023/07/01 04:37:02;;;;;;;7.22;3.55;;;15.90;99.90;;;;;;5065047;28;20115;-85
2023/07/01 04:39:28;;;;;;;4.22;3.10;;;15.90;99.90;;;;;;5066600;28;20044;-85
2023/07/01 04:41:53;;;;;;;4.88;3.40;;;16.00;99.90;;;;;;5065011;28;20186;-84
2023/07/01 04:44:19;;;;;;;3.45;3.15;;;16.00;99.90;;;;;;5051146;28;20036;-84
2023/07/01 04:46:44;;;;;;;3.72;3.20;;;16.00;99.90;;;;;;5066296;28;20056;-84
2023/07/01 04:49:10;;;;;;;7.50;3.67;;;16.00;99.90;;;;;;5067324;28;20049;-82
2023/07/01 04:51:39;;;;;;;4.07;3.60;;;16.00;99.90;;;;;;5065852;28;20504;-84
2023/07/01 04:54:04;;;;;;;7.63;3.45;;;16.00;99.90;;;;;;5066880;28;20047;-82
2023/07/01 04:56:31;;;;;;;6.93;3.65;;;16.00;99.90;;;;;;5083923;28;20056;-84
2023/07/01 04:58:56;;;;;;;5.68;3.70;;;16.00;99.90;;;;;;5065026;28;20037;-83
2023/07/01 05:01:22;;;;;;;6.07;3.67;;;16.10;99.90;;;;;;5069696;28;20556;-84
2023/07/01 05:03:48;;;;;;;4.10;3.70;;;16.10;99.90;;;;;;5071554;28;20045;-84
2023/07/01 05:06:14;;;;;;;5.57;3.50;;;16.10;99.90;;;;;;5072355;28;20468;-84
2023/07/01 05:08:39;;;;;;;4.50;3.50;;;16.10;99.90;;;;;;5074368;28;20067;-84
2023/07/01 05:11:05;;;;;;;6.38;3.97;;;16.20;99.90;;;;;;5072630;28;20044;-83
2023/07/01 05:13:31;;;;;;;5.90;3.90;;;16.10;99.90;;;;;;5073237;28;20052;-83
2023/07/01 05:15:57;;;;;;;4.85;3.67;;;16.40;99.90;;;;;;5055405;28;20048;-83
2023/07/01 05:18:22;;;;;;;3.80;3.13;;;16.20;99.90;;;;;;5068838;28;20037;-83
2023/07/01 05:20:48;;;;;;;5.82;3.85;;;16.20;99.90;;;;;;5072158;28;20049;-85
2023/07/01 05:23:13;;;;;;;6.68;3.97;;;16.30;99.90;;;;;;5071515;28;20127;-86
2023/07/01 05:25:40;;;;;;;5.75;3.53;;;16.30;99.90;;;;;;5074183;28;20089;-85
2023/07/01 05:28:08;;;;;;;7.13;4.00;;;16.30;99.90;;;;;;5072505;28;20059;-84
2023/07/01 05:30:34;;;;;;;4.72;3.80;;;16.30;99.90;;;;;;5071685;28;20153;-86
2023/07/01 05:32:59;;;;;;;5.32;3.58;;;16.40;99.90;;;;;;5072206;28;20106;-85
2023/07/01 05:35:25;;;;;;;6.65;3.83;;;16.40;99.90;;;;;;5069887;28;20045;-85
2023/07/01 05:37:52;;;;;;;4.28;3.63;;;16.40;99.90;;;;;;5074501;28;20041;-85
2023/07/01 05:40:18;;;;;;;4.20;3.55;;;16.50;99.90;;;;;;5073922;28;20067;-85
2023/07/01 05:42:45;;;;;;;6.85;4.32;;;16.30;99.90;;;;;;5073287;28;20044;-85
2023/07/01 05:45:11;;;;;;;4.30;3.45;;;16.60;99.90;;;;;;5086934;28;20048;-85
2023/07/01 05:47:37;;;;;;;7.25;3.95;;;16.60;99.90;;;;;;5073163;28;20044;-85
2023/07/01 05:50:03;;;;;;;4.40;4.00;;;17.00;99.90;;;;;;5074088;28;20055;-84
2023/07/01 05:52:29;;;;;;;5.05;3.15;;;16.60;99.90;;;;;;5071228;28;20063;-86
2023/07/01 05:54:55;;;;;;;5.65;3.33;;;16.70;99.90;;;;;;5089459;28;20460;-84
2023/07/01 05:57:20;;;;;;;4.07;3.60;;;16.70;99.90;;;;;;5073498;28;20416;-83
2023/07/01 05:59:47;;;;;;;4.57;3.60;;;16.70;99.90;;;;;;5073117;28;20135;-84
2023/07/01 06:02:13;;;;;;;5.40;3.63;;;16.80;99.90;;;;;;5072974;28;20160;-84
2023/07/01 06:04:38;;;;;;;5.05;4.00;;;17.10;99.90;;;;;;5054969;28;20056;-81
2023/07/01 06:07:04;;;;;;;5.85;3.75;;;16.80;99.90;;;;;;5054126;28;20434;-83
2023/07/01 06:09:29;;;;;;;4.80;3.95;;;16.80;99.90;;;;;;5055379;28;20040;-83
2023/07/01 06:11:55;;;;;;;4.07;3.70;;;16.70;99.90;;;;;;5071010;28;20181;-85
2023/07/01 06:14:21;;;;;;;5.70;3.92;;;16.70;99.90;;;;;;5068856;28;20094;-83
2023/07/01 06:16:46;;;;;;;7.05;4.28;;;16.70;99.90;;;;;;5070324;28;20048;-82
2023/07/01 06:19:12;;;;;;;6.70;4.30;;;16.50;99.90;;;;;;5070760;28;20159;-83
2023/07/01 06:21:37;;;;;;;4.93;4.18;;;16.60;99.90;;;;;;5065637;28;20045;-82
2023/07/01 06:24:03;;;;;;;7.97;4.50;;;17.00;99.90;;;;;;5063107;28;20049;-82
2023/07/01 06:26:29;;;;;;;6.32;4.30;;;16.60;99.90;;;;;;5067719;28;20508;-83
2023/07/01 06:28:55;;;;;;;17.17;5.55;;;16.60;99.90;;;;;;5068240;28;20083;-83
2023/07/01 06:31:20;;;;;;;7.30;4.28;;;16.60;99.90;;;;;;5068941;28;20479;-82
2023/07/01 06:33:46;;;;;;;6.97;4.68;;;16.70;99.90;;;;;;5070163;28;20047;-81
2023/07/01 06:36:13;;;;;;;7.80;4.72;;;16.60;99.90;;;;;;5065835;28;20076;-82
2023/07/01 06:38:40;;;;;;;4.97;4.50;;;16.60;99.90;;;;;;5071688;28;20556;-83
2023/07/01 06:41:06;;;;;;;5.72;4.55;;;16.50;99.90;;;;;;5068390;28;20047;-82
2023/07/01 06:43:32;;;;;;;5.65;4.53;;;16.50;99.90;;;;;;5064007;28;20392;-81
2023/07/01 06:45:59;;;;;;;6.93;5.00;;;16.40;99.90;;;;;;5065400;28;20045;-82
2023/07/01 06:48:25;;;;;;;4.93;4.43;;;16.40;99.90;;;;;;5056699;28;20112;-81
2023/07/01 06:50:50;;;;;;;6.38;4.97;;;16.30;99.90;;;;;;5047581;28;20056;-82
2023/07/01 06:53:16;;;;;;;5.47;4.93;;;16.40;99.90;;;;;;5070796;28;20057;-79
2023/07/01 06:55:41;;;;;;;6.88;5.18;;;16.40;99.90;;;;;;5071246;28;20055;-83
2023/07/01 06:58:07;;;;;;;7.93;5.28;;;16.80;99.90;;;;;;5068582;28;20123;-83
2023/07/01 07:00:33;;;;;;;7.88;5.10;;;16.40;99.90;;;;;;5050921;28;20044;-82
2023/07/01 07:02:58;;;;;;;6.20;4.70;;;16.30;99.90;;;;;;5067334;28;20100;-83
2023/07/01 07:05:24;;;;;;;6.35;5.28;;;16.40;99.90;;;;;;5067670;28;20082;-84
2023/07/01 07:07:50;;;;;;;6.30;5.10;;;16.40;99.90;;;;;;5067717;28;20087;-84
2023/07/01 07:10:15;;;;;;;6.35;5.50;;;16.40;99.90;;;;;;5066306;28;20057;-82
2023/07/01 07:12:41;;;;;;;7.15;5.07;;;16.40;99.90;;;;;;5068529;28;20484;-81
2023/07/01 07:15:07;;;;;;;7.53;5.85;;;16.50;99.90;;;;;;5068010;28;20161;-83
2023/07/01 07:17:34;;;;;;;6.03;5.32;;;16.50;99.90;;;;;;5050977;28;20080;-83
2023/07/01 07:20:00;;;;;;;6.22;5.63;;;16.90;99.90;;;;;;5067548;28;20044;-82
2023/07/01 07:22:25;;;;;;;5.60;5.05;;;16.80;99.90;;;;;;5067796;28;20090;-83
2023/07/01 07:24:51;;;;;;;7.35;5.43;;;16.60;99.90;;;;;;5067074;28;20349;-82
2023/07/01 07:27:16;;;;;;;5.97;5.38;;;16.50;99.90;;;;;;5067334;28;20079;-83
2023/07/01 07:29:42;;;;;;;6.47;5.22;;;16.60;99.90;;;;;;5066660;28;20040;-83
2023/07/01 07:32:08;;;;;;;5.80;5.10;;;16.60;99.90;;;;;;5068698;28;20043;-84
2023/07/01 07:34:34;;;;;;;6.00;5.30;;;16.60;99.90;;;;;;5068186;28;20123;-84
2023/07/01 07:36:59;;;;;;;5.90;5.22;;;16.60;99.90;;;;;;5069043;28;20050;-83
2023/07/01 07:39:25;;;;;;;7.80;4.95;;;16.60;99.90;;;;;;5067266;28;20040;-83
2023/07/01 07:41:51;;;;;;;6.00;5.40;;;16.60;99.90;;;;;;5067052;28;20074;-83
2023/07/01 07:44:18;;;;;;;6.40;5.03;;;16.70;99.90;;;;;;5063193;28;20115;-83
2023/07/01 07:46:44;;;;;;;7.53;5.40;;;16.70;99.90;;;;;;5047554;28;20131;-83
2023/07/01 07:49:10;;;;;;;6.30;5.50;;;16.80;99.90;;;;;;5046792;28;20056;-84
2023/07/01 07:51:36;;;;;;;7.07;5.97;;;17.00;99.90;;;;;;5047079;28;20049;-84
2023/07/01 07:54:01;;;;;;;5.80;5.30;;;16.90;99.90;;;;;;5047364;28;20055;-83
2023/07/01 07:56:28;;;;;;;6.60;5.65;;;17.40;99.90;;;;;;5056670;28;20075;-84
2023/07/01 07:58:53;;;;;;;5.90;5.38;;;16.90;99.90;;;;;;5067472;28;20428;-83
2023/07/01 08:01:19;;;;;;;5.88;5.07;;;17.40;99.90;;;;;;5084022;28;20058;-86
2023/07/01 08:03:44;;;;;;;8.20;5.40;;;16.90;99.90;;;;;;5067093;28;20048;-84
2023/07/01 08:06:10;;;;;;;6.82;5.70;;;17.00;99.90;;;;;;5066928;28;20056;-83
2023/07/01 08:08:36;;;;;;;6.63;5.32;;;17.00;99.90;;;;;;5050693;28;20503;-85
2023/07/01 08:11:01;;;;;;;6.03;5.43;;;17.00;99.90;;;;;;5048316;28;20040;-82
2023/07/01 08:13:27;;;;;;;6.60;5.45;;;17.10;99.90;;;;;;5066085;28;20550;-83
2023/07/01 08:15:53;;;;;;;5.68;4.80;;;17.20;99.90;;;;;;5066774;28;20582;-86
2023/07/01 08:18:19;;;;;;;7.22;5.30;;;17.20;99.90;;;;;;5045574;28;20037;-87
2023/07/01 08:20:45;;;;;;;6.85;5.63;;;17.20;99.90;;;;;;5032289;28;20097;-86
2023/07/01 08:23:11;;;;;;;5.60;5.10;;;17.10;99.90;;;;;;5049602;28;20052;-88
2023/07/01 08:25:41;;;;;;;5.60;5.10;;;17.00;99.90;;;;;;5065560;28;20098;-87
2023/07/01 08:28:07;;;;;;;6.32;5.20;;;17.10;99.90;;;;;;5066403;28;20048;-88
2023/07/01 08:30:33;;;;;;;6.13;4.82;;;16.90;99.90;;;;;;5067187;28;20381;-87
2023/07/01 08:32:59;;;;;;;5.38;4.88;;;17.20;99.90;;;;;;5050549;28;20048;-84
2023/07/01 08:35:26;;;;;;;5.60;4.80;;;17.20;99.90;;;;;;5048398;28;20037;-86
2023/07/01 08:37:52;;;;;;;5.25;4.85;;;17.30;99.90;;;;;;5066603;28;20089;-83
2023/07/01 08:40:18;;;;;;;7.07;5.60;;;17.40;99.90;;;;;;5050408;28;20052;-85
2023/07/01 08:43:01;;;;;;;6.10;5.13;;;17.50;99.90;;;;;;5066892;28;20091;-84
2023/07/01 08:45:29;;;;;;;5.78;5.25;;;17.80;99.90;;;;;;5080152;28;20777;-87
2023/07/01 08:48:00;;;;;;;5.75;5.13;;;17.80;99.90;;;;;;5064754;28;20052;-84
2023/07/01 08:50:33;;;;;;;5.83;4.93;;;17.90;99.90;;;;;;5045295;28;20480;-84
2023/07/01 08:53:06;;;;;;;6.57;5.45;;;17.70;99.90;;;;;;5047071;28;20601;-83
2023/07/01 08:55:33;;;;;;;5.97;5.38;;;17.90;99.90;;;;;;5048245;28;20052;-83
2023/07/01 08:58:00;;;;;;;5.50;4.93;;;17.70;99.90;;;;;;5030567;28;20492;-84
2023/07/01 09:00:29;;;;;;;4.88;4.50;;;17.50;99.90;;;;;;5029699;28;20047;-83
2023/07/01 09:02:56;;;;;;;6.05;5.45;;;17.60;99.90;;;;;;5041551;28;20459;-84
2023/07/01 09:05:21;;;;;;;5.97;5.38;;;17.60;99.90;;;;;;5045707;28;20052;-85
2023/07/01 09:07:47;;;;;;;7.30;5.00;;;17.70;99.90;;;;;;5057482;28;20071;-85
2023/07/01 09:10:13;;;;;;;5.35;4.88;;;17.60;99.90;;;;;;5048836;28;20098;-83
2023/07/01 09:12:39;;;;;;;5.50;5.00;;;17.60;99.90;;;;;;5068477;28;20040;-84
2023/07/01 09:15:08;;;;;;;6.05;5.13;;;17.60;99.90;;;;;;5066273;28;20159;-84
2023/07/01 09:17:37;;;;;;;7.15;5.82;;;17.60;99.90;;;;;;5067497;28;20048;-85
2023/07/01 09:20:05;;;;;;;6.25;5.10;;;17.70;99.90;;;;;;5049278;28;20053;-84
2023/07/01 09:22:38;;;;;;;6.38;5.20;;;17.70;99.90;;;;;;5045106;28;20044;-84
2023/07/01 09:25:04;;;;;;;5.82;5.22;;;17.80;99.90;;;;;;5054324;28;20091;-86
2023/07/01 09:27:41;;;;;;;5.35;4.93;;;17.80;99.90;;;;;;5048063;28;20853;-83
2023/07/01 09:30:19;;;;;;;5.65;5.10;;;17.90;99.90;;;;;;5066345;28;20049;-83
2023/07/01 09:32:45;;;;;;;5.65;5.15;;;17.90;99.90;;;;;;5066611;28;20041;-84
2023/07/01 09:35:12;;;;;;;5.38;4.93;;;17.90;99.90;;;;;;5047118;28;20045;-84
2023/07/01 09:37:38;;;;;;;5.65;5.15;;;18.00;99.90;;;;;;5065784;28;20040;-83
2023/07/01 09:40:26;;;;;;;5.60;4.93;;;18.50;99.90;;;;;;5048183;28;20041;-83
2023/07/01 09:42:55;;;;;;;4.82;4.43;;;18.00;99.90;;;;;;5063888;28;20101;-83
2023/07/01 09:45:21;;;;;;;5.28;4.80;;;18.50;99.90;;;;;;5042082;28;20037;-85
2023/07/01 09:47:54;;;;;;;6.97;4.88;;;18.10;99.90;;;;;;5068918;28;20040;-84
2023/07/01 09:50:26;;;;;;;5.72;5.20;;;18.40;99.90;;;;;;5070493;28;20049;-83
2023/07/01 09:52:55;;;;;;;5.22;4.72;;;18.20;99.90;;;;;;5069769;28;20480;-85
2023/07/01 09:55:21;;;;;;;5.03;4.57;;;18.20;99.90;;;;;;5052961;28;20083;-84
2023/07/01 09:57:47;;;;;;;5.57;4.53;;;18.30;99.90;;;;;;5070067;28;20091;-85
2023/07/01 10:00:15;;;;;;;6.00;5.03;;;18.30;99.90;;;;;;5068762;28;20571;-83
2023/07/01 10:02:46;;;;;;;5.82;5.00;;;18.30;99.90;;;;;;5067812;28;20058;-85
2023/07/01 10:05:13;;;;;;;4.95;4.45;;;18.40;99.90;;;;;;5068853;28;20420;-85
2023/07/01 10:07:39;;;;;;;4.88;4.43;;;18.20;99.90;;;;;;5069161;28;20450;-85
2023/07/01 10:10:17;;;;;;;5.65;5.15;;;18.30;99.90;;;;;;5053362;28;20127;-84
2023/07/01 10:12:45;;;;;;;5.57;5.05;;;18.20;99.90;;;;;;5068441;28;20448;-84
2023/07/01 10:15:13;;;;;;;5.82;5.30;;;18.40;99.90;;;;;;5050319;28;20083;-85
2023/07/01 10:17:46;;;;;;;5.18;4.68;;;18.50;99.90;;;;;;5057243;28;20048;-83
2023/07/01 10:20:29;;;;;;;6.25;5.65;;;18.30;99.90;;;;;;5066985;28;20416;-85
2023/07/01 10:22:59;;;;;;;6.47;5.22;;;18.30;99.90;;;;;;5065986;28;20044;-84
2023/07/01 10:25:36;;;;;;;5.53;5.03;;;18.30;99.90;;;;;;5070703;28;20488;-84
2023/07/01 10:28:11;;;;;;;5.75;5.20;;;18.30;99.90;;;;;;5067843;28;20047;-84
2023/07/01 10:30:46;;;;;;;5.88;5.22;;;18.30;99.90;;;;;;5052729;28;20040;-83
2023/07/01 10:33:31;;;;;;;5.00;4.50;;;18.40;99.90;;;;;;5051490;28;20040;-83
2023/07/01 10:36:07;;;;;;;6.45;4.95;;;18.40;99.90;;;;;;5067869;28;20143;-85
2023/07/01 10:38:37;;;;;;;5.53;5.03;;;18.50;99.90;;;;;;5068835;28;20040;-84
2023/07/01 10:41:03;;;;;;;5.78;5.00;;;18.50;99.90;;;;;;5069602;28;20052;-84
2023/07/01 10:43:29;;;;;;;5.10;4.60;;;18.60;99.90;;;;;;5069130;28;20399;-85
2023/07/01 10:46:07;;;;;;;5.13;4.72;;;18.60;99.90;;;;;;5050388;28;20079;-85
2023/07/01 10:49:02;;;;;;;5.03;4.53;;;18.90;99.90;;;;;;5068536;28;20048;-87
2023/07/01 10:51:28;;;;;;;5.32;4.80;;;18.70;99.90;;;;;;5051160;28;20548;-84
2023/07/01 10:54:00;;;;;;;5.78;5.20;;;18.70;99.90;;;;;;5061817;28;20048;-87
2023/07/01 10:56:51;;;;;;;7.57;5.40;;;18.80;99.90;;;;;;5052579;28;20047;-85
2023/07/01 10:59:26;;;;;;;6.32;5.30;;;18.80;99.90;;;;;;5059059;28;20512;-84
2023/07/01 11:01:56;;;;;;;6.30;5.30;;;18.70;99.90;;;;;;5069640;28;20047;-85
2023/07/01 11:04:24;;;;;;;5.75;5.18;;;18.70;99.90;;;;;;5060572;28;20053;-83
2023/07/01 11:06:54;;;;;;;5.53;5.03;;;18.70;99.90;;;;;;5052120;28;20045;-87
2023/07/01 11:09:32;;;;;;;6.00;5.43;;;18.70;99.90;;;;;;5066739;28;20106;-85
2023/07/01 11:12:00;;;;;;;7.95;5.15;;;18.90;99.90;;;;;;5049104;28;20506;-86
2023/07/01 11:14:38;;;;;;;5.88;5.38;;;19.40;99.90;;;;;;5067092;28;20131;-85
2023/07/01 11:17:19;;;;;;;5.28;4.78;;;19.10;99.90;;;;;;5049193;28;20493;-85
2023/07/01 11:19:45;;;;;;;6.15;5.57;;;19.20;99.90;;;;;;5067703;28;20072;-89
2023/07/01 11:22:12;;;;;;;5.72;5.20;;;19.20;99.90;;;;;;5068622;28;20721;-88
2023/07/01 11:24:38;;;;;;;6.90;4.95;;;19.60;99.90;;;;;;5067512;28;20040;-88
2023/07/01 11:27:08;;;;;;;5.38;4.88;;;19.30;99.90;;;;;;5067923;28;20053;-85
2023/07/01 11:29:37;;;;;;;5.07;4.63;;;19.30;99.90;;;;;;5066564;28;20052;-85
2023/07/01 11:32:13;;;;;;;5.35;4.85;;;19.20;99.90;;;;;;5067211;28;20537;-84
2023/07/01 11:34:39;;;;;;;4.57;4.18;;;19.80;99.90;;;;;;5065887;28;20049;-83
2023/07/01 11:37:05;;;;;;;5.40;4.90;;;19.30;99.90;;;;;;5068765;28;20091;-83
2023/07/01 11:39:31;;;;;;;4.18;3.88;;;19.60;99.90;;;;;;5066546;28;20362;-84
2023/07/01 11:42:02;;;;;;;4.50;4.10;;;19.30;99.90;;;;;;5051414;28;20056;-84
2023/07/01 11:44:29;;;;;;;4.47;4.07;;;19.80;99.90;;;;;;5068626;28;20040;-85
2023/07/01 11:46:56;;;;;;;4.97;4.40;;;19.40;99.90;;;;;;5069329;28;20131;-83
2023/07/01 11:49:21;;;;;;;5.05;4.65;;;19.60;99.90;;;;;;5064596;28;20045;-84
2023/07/01 11:51:55;;;;;;;4.60;4.20;;;19.20;99.90;;;;;;5061390;28;20052;-87
2023/07/01 11:54:45;;;;;;;4.47;3.83;;;19.20;99.90;;;;;;5037402;28;20060;-86
2023/07/01 11:57:15;;;;;;;3.83;3.53;;;19.50;99.90;;;;;;5049944;28;20045;-85
2023/07/01 11:59:45;;;;;;;3.80;3.40;;;19.20;99.90;;;;;;5057268;28;20056;-85
2023/07/01 12:02:13;;;;;;;3.22;2.92;;;19.40;99.90;;;;;;5071567;28;20036;-87
2023/07/01 12:04:43;;;;;;;3.38;2.85;;;19.70;99.90;;;;;;5057377;28;20049;-90
2023/07/01 12:07:20;;;;;;;3.35;3.05;;;19.80;99.90;;;;;;5059542;28;20099;-88
2023/07/01 12:09:49;;;;;;;3.40;3.10;;;20.00;99.90;;;;;;5043509;28;20033;-89
2023/07/01 12:12:17;;;;;;;3.90;3.60;;;20.20;99.90;;;;;;5054236;28;20416;-88
2023/07/01 12:14:43;;;;;;;3.35;3.05;;;20.10;99.90;;;;;;5058857;28;20044;-86
2023/07/01 12:17:25;;;;;;;3.28;2.97;;;20.40;99.90;;;;;;5054118;28;20040;-87
2023/07/01 12:19:51;;;;;;;;;;;21.10;99.90;;;;;;5055913;28;20109;-87
2023/07/01 12:22:17;;;;;;;3.85;3.17;;;21.00;99.90;;;;;;5041162;28;19920;-86
2023/07/01 12:24:42;;;;;;;3.63;2.88;;;21.10;99.90;;;;;;5037995;28;20036;-86
2023/07/01 12:27:08;;;;;;;3.40;3.10;;;21.00;99.90;;;;;;5043479;28;20458;-87
2023/07/01 12:29:36;;;;;;;3.30;2.70;;;20.60;99.90;;;;;;5038509;28;20041;-87
2023/07/01 12:32:09;;;;;;;3.15;2.80;;;20.90;99.90;;;;;;5055864;28;20060;-87
2023/07/01 12:34:44;;;;;;;3.08;2.78;;;20.80;99.90;;;;;;5059322;28;20086;-88
2023/07/01 12:37:10;;;;;;;3.53;2.95;;;21.30;99.90;;;;;;5060839;28;20051;-87
2023/07/01 12:39:36;;;;;;;4.13;3.30;;;20.20;99.90;;;;;;5058160;28;20120;-85
2023/07/01 12:42:03;;;;;;;3.45;3.15;;;20.40;99.90;;;;;;5065107;28;20080;-87
2023/07/01 12:44:29;;;;;;;3.40;3.10;;;20.10;99.90;;;;;;5065720;28;20534;-86
2023/07/01 12:46:55;;;;;;;3.83;3.10;;;19.90;99.90;;;;;;5066312;28;20048;-87
2023/07/01 12:49:21;;;;;;;4.78;3.35;;;19.80;99.90;;;;;;5065265;28;20105;-86
2023/07/01 12:51:47;;;;;;;3.55;3.22;;;19.40;99.90;;;;;;5066097;28;20052;-86